createdAt,value
2023-03-06T00:00:47.251Z,76.39
2023-03-06T00:01:51.786Z,76.17
2023-03-06T00:03:13.361Z,76.19
2023-03-06T00:04:35.974Z,75.97
2023-03-06T00:05:59.393Z,76.14
2023-03-06T00:07:23.318Z,75.99
2023-03-06T00:08:44.867Z,76.17
2023-03-06T00:10:07.868Z,76.40
2023-03-06T00:11:30.446Z,76.33
2023-03-06T00:12:52.813Z,76.52
2023-03-06T00:14:15.905Z,76.12
2023-03-06T00:15:26.732Z,76.61
2023-03-06T00:16:29.375Z,76.31
2023-03-06T00:17:30.886Z,76.79
2023-03-06T00:18:33.766Z,76.67
2023-03-06T00:19:35.606Z,76.53
2023-03-06T00:20:40.613Z,76.69
2023-03-06T00:21:42.294Z,76.82
2023-03-06T00:22:46.314Z,76.66
2023-03-06T00:23:47.974Z,76.84
2023-03-06T00:24:50.483Z,76.74
2023-03-06T00:25:52.105Z,76.78
2023-03-06T00:26:54.625Z,76.91
2023-03-06T00:27:56.199Z,76.84
2023-03-06T00:28:58.884Z,77.03
2023-03-06T00:30:01.369Z,77.08
2023-03-06T00:31:05.080Z,77.06
2023-03-06T00:32:07.741Z,76.82
2023-03-06T00:33:10.330Z,76.80
2023-03-06T00:34:12.271Z,77.03
2023-03-06T00:35:15.553Z,77.26
2023-03-06T00:36:17.480Z,76.86
2023-03-06T00:37:20.848Z,76.81
2023-03-06T00:38:25.238Z,77.25
2023-03-06T00:39:27.752Z,76.97
2023-03-06T00:40:29.253Z,77.40
2023-03-06T00:41:31.765Z,77.36
2023-03-06T00:42:33.319Z,77.29
2023-03-06T00:43:35.878Z,77.49
2023-03-06T00:44:37.388Z,77.60
2023-03-06T00:45:40.411Z,77.34
2023-03-06T00:46:42.183Z,77.15
2023-03-06T00:47:44.864Z,77.45
2023-03-06T00:48:46.479Z,77.45
2023-03-06T00:49:48.959Z,77.12
2023-03-06T00:50:50.485Z,77.20
2023-03-06T00:51:52.983Z,76.94
2023-03-06T00:52:54.563Z,77.01
2023-03-06T00:53:58.394Z,77.25
2023-03-06T00:55:00.185Z,77.25
2023-03-06T00:56:02.670Z,77.16
2023-03-06T00:57:05.082Z,77.54
2023-03-06T00:58:07.575Z,77.28
2023-03-06T00:59:09.121Z,77.36
2023-03-06T01:00:14.053Z,77.14
2023-03-06T01:01:16.936Z,76.93
2023-03-06T01:02:20.536Z,77.26
2023-03-06T01:03:22.115Z,76.95
2023-03-06T01:04:24.946Z,77.02
2023-03-06T01:05:26.550Z,76.88
2023-03-06T01:06:29.503Z,76.95
2023-03-06T01:07:33.921Z,77.06
2023-03-06T01:08:36.581Z,77.14
2023-03-06T01:09:39.476Z,77.05
2023-03-06T01:10:42.063Z,76.86
2023-03-06T01:11:43.620Z,76.92
2023-03-06T01:12:46.661Z,76.89
2023-03-06T01:13:48.358Z,76.60
2023-03-06T01:14:50.897Z,76.62
2023-03-06T01:15:52.792Z,76.91
2023-03-06T01:16:55.294Z,76.76
2023-03-06T01:17:56.948Z,76.84
2023-03-06T01:18:59.901Z,76.68
2023-03-06T01:20:01.550Z,77.01
2023-03-06T01:21:04.822Z,77.17
2023-03-06T01:22:06.624Z,77.12
2023-03-06T01:23:09.192Z,76.91
2023-03-06T01:24:10.817Z,76.97
2023-03-06T01:25:14.692Z,77.23
2023-03-06T01:26:16.324Z,77.38
2023-03-06T01:27:18.946Z,77.37
2023-03-06T01:28:20.503Z,77.52
2023-03-06T01:29:23.021Z,77.59
2023-03-06T01:30:24.566Z,77.43
2023-03-06T01:31:27.403Z,77.55
2023-03-06T01:32:30.608Z,77.30
2023-03-06T01:33:33.626Z,77.57
2023-03-06T01:34:35.204Z,77.67
2023-03-06T01:35:39.034Z,77.62
2023-03-06T01:36:40.880Z,77.59
2023-03-06T01:37:43.476Z,77.82
2023-03-06T01:38:45.080Z,78.01
2023-03-06T01:39:47.596Z,78.06
2023-03-06T01:40:51.592Z,78.15
2023-03-06T01:41:53.321Z,78.13
2023-03-06T01:42:55.856Z,78.33
2023-03-06T01:43:57.361Z,78.03
2023-03-06T01:45:01.884Z,78.00
2023-03-06T01:46:38.681Z,78.33
2023-03-06T01:47:40.374Z,77.96
2023-03-06T01:48:44.329Z,78.41
2023-03-06T01:49:45.951Z,78.21
2023-03-06T01:50:49.109Z,78.22
2023-03-06T01:51:55.246Z,78.38
2023-03-06T01:52:59.453Z,78.48
2023-03-06T01:54:07.515Z,78.57
2023-03-06T01:55:13.372Z,78.55
2023-03-06T01:56:17.596Z,78.32
2023-03-06T01:57:22.376Z,78.24
2023-03-06T01:58:24.947Z,78.63
2023-03-06T01:59:28.533Z,78.72
2023-03-06T02:00:31.440Z,78.56
2023-03-06T02:01:33.639Z,78.38
2023-03-06T02:02:37.086Z,78.64
2023-03-06T02:03:40.092Z,78.57
2023-03-06T02:04:44.092Z,78.59
2023-03-06T02:05:46.220Z,78.88
2023-03-06T02:06:49.179Z,78.67
2023-03-06T02:07:51.870Z,78.82
2023-03-06T02:08:55.320Z,78.96
2023-03-06T02:09:57.071Z,78.99
2023-03-06T02:11:10.339Z,78.95
2023-03-06T02:12:16.305Z,78.74
2023-03-06T02:13:18.800Z,78.97
2023-03-06T02:14:21.449Z,79.13
2023-03-06T02:15:25.660Z,78.92
2023-03-06T02:16:30.867Z,78.88
2023-03-06T02:17:35.388Z,78.98
2023-03-06T02:18:39.118Z,78.81
2023-03-06T02:19:50.052Z,79.43
2023-03-06T02:20:54.971Z,79.20
2023-03-06T02:21:56.741Z,78.83
2023-03-06T02:23:05.799Z,79.13
2023-03-06T02:24:20.052Z,78.73
2023-03-06T02:25:34.157Z,78.92
2023-03-06T02:26:37.683Z,78.74
2023-03-06T02:27:40.553Z,78.89
2023-03-06T02:28:42.702Z,78.95
2023-03-06T02:29:45.316Z,79.01
2023-03-06T02:30:48.968Z,79.15
2023-03-06T02:31:51.800Z,78.90
2023-03-06T02:32:53.621Z,79.04
2023-03-06T02:34:09.021Z,78.92
2023-03-06T02:35:18.466Z,79.10
2023-03-06T02:36:21.072Z,78.94
2023-03-06T02:37:23.707Z,78.93
2023-03-06T02:38:30.348Z,79.08
2023-03-06T02:39:34.315Z,79.11
2023-03-06T02:40:38.572Z,79.22
2023-03-06T02:41:41.396Z,78.90
2023-03-06T02:42:47.279Z,79.30
2023-03-06T02:43:50.406Z,79.31
2023-03-06T02:44:55.156Z,79.34
2023-03-06T02:45:56.789Z,79.30
2023-03-06T02:46:59.432Z,79.41
2023-03-06T02:48:01.042Z,79.41
2023-03-06T02:49:03.644Z,79.41
2023-03-06T02:50:05.530Z,79.19
2023-03-06T02:51:08.017Z,79.37
2023-03-06T02:52:09.627Z,79.49
2023-03-06T02:53:13.350Z,79.44
2023-03-06T02:54:18.179Z,79.27
2023-03-06T02:55:20.658Z,79.39
2023-03-06T02:56:23.491Z,79.46
2023-03-06T02:57:25.996Z,79.40
2023-03-06T02:58:27.787Z,79.37
2023-03-06T02:59:30.333Z,79.68
2023-03-06T03:00:32.610Z,79.61
2023-03-06T03:01:35.158Z,79.70
2023-03-06T03:02:37.071Z,79.73
2023-03-06T03:03:39.630Z,79.29
2023-03-06T03:04:41.352Z,79.35
2023-03-06T03:05:43.867Z,79.52
2023-03-06T03:06:45.378Z,79.34
2023-03-06T03:07:48.152Z,79.47
2023-03-06T03:08:49.674Z,79.57
2023-03-06T03:09:52.287Z,79.60
2023-03-06T03:10:55.665Z,79.67
2023-03-06T03:11:59.527Z,79.38
2023-03-06T03:13:01.111Z,79.54
2023-03-06T03:14:03.603Z,79.44
2023-03-06T03:15:06.731Z,79.48
2023-03-06T03:16:13.859Z,79.59
2023-03-06T03:17:16.030Z,79.54
2023-03-06T03:18:22.797Z,79.34
2023-03-06T03:19:24.363Z,79.44
2023-03-06T03:20:27.036Z,79.62
2023-03-06T03:21:28.664Z,79.27
2023-03-06T03:22:31.691Z,79.24
2023-03-06T03:23:33.343Z,79.45
2023-03-06T03:24:35.986Z,79.57
2023-03-06T03:25:37.552Z,79.42
2023-03-06T03:26:40.148Z,79.63
2023-03-06T03:27:43.523Z,79.47
2023-03-06T03:28:46.173Z,79.27
2023-03-06T03:29:47.789Z,79.39
2023-03-06T03:30:50.288Z,78.99
2023-03-06T03:31:51.887Z,79.19
2023-03-06T03:32:54.621Z,79.23
2023-03-06T03:33:56.221Z,79.29
2023-03-06T03:34:58.801Z,79.12
2023-03-06T03:36:02.613Z,79.30
2023-03-06T03:37:05.497Z,79.11
2023-03-06T03:38:07.069Z,79.31
2023-03-06T03:39:10.123Z,79.31
2023-03-06T03:40:12.729Z,79.04
2023-03-06T03:41:15.248Z,78.93
2023-03-06T03:42:16.796Z,78.88
2023-03-06T03:43:21.302Z,79.02
2023-03-06T03:44:22.939Z,79.04
2023-03-06T03:45:25.667Z,79.25
2023-03-06T03:46:27.479Z,78.82
2023-03-06T03:47:30.482Z,78.84
2023-03-06T03:48:32.100Z,79.15
2023-03-06T03:49:34.620Z,78.93
2023-03-06T03:50:36.160Z,78.58
2023-03-06T03:51:41.873Z,78.88
2023-03-06T03:52:43.444Z,78.95
2023-03-06T03:53:46.546Z,78.81
2023-03-06T03:54:48.195Z,79.18
2023-03-06T03:55:51.478Z,79.03
2023-03-06T03:56:53.013Z,78.79
2023-03-06T03:57:55.506Z,79.04
2023-03-06T03:58:59.201Z,78.91
2023-03-06T04:00:01.760Z,78.98
2023-03-06T04:01:05.306Z,78.90
2023-03-06T04:02:07.849Z,78.86
2023-03-06T04:03:09.548Z,78.85
2023-03-06T04:04:12.138Z,78.87
2023-03-06T04:05:14.979Z,78.95
2023-03-06T04:06:18.708Z,78.96
2023-03-06T04:07:20.225Z,79.00
2023-03-06T04:08:24.276Z,78.83
2023-03-06T04:09:25.829Z,79.04
2023-03-06T04:10:28.781Z,78.91
2023-03-06T04:11:30.343Z,78.83
2023-03-06T04:12:33.306Z,78.87
2023-03-06T04:13:34.872Z,78.91
2023-03-06T04:14:38.747Z,78.86
2023-03-06T04:15:40.258Z,78.57
2023-03-06T04:16:43.103Z,78.89
2023-03-06T04:17:44.618Z,78.79
2023-03-06T04:18:47.205Z,78.61
2023-03-06T04:19:48.891Z,78.44
2023-03-06T04:20:51.499Z,78.71
2023-03-06T04:21:53.048Z,78.61
2023-03-06T04:22:55.564Z,78.67
2023-03-06T04:23:58.394Z,78.73
2023-03-06T04:25:00.898Z,78.78
2023-03-06T04:26:02.724Z,78.70
2023-03-06T04:27:05.650Z,78.89
2023-03-06T04:28:07.819Z,78.87
2023-03-06T04:29:13.507Z,78.58
2023-03-06T04:30:16.598Z,78.79
2023-03-06T04:31:19.192Z,78.79
2023-03-06T04:32:21.638Z,78.65
2023-03-06T04:33:24.560Z,78.69
2023-03-06T04:34:26.175Z,78.79
2023-03-06T04:35:28.915Z,78.86
2023-03-06T04:36:33.054Z,78.59
2023-03-06T04:37:34.665Z,78.81
2023-03-06T04:38:37.202Z,78.67
2023-03-06T04:39:38.774Z,78.96
2023-03-06T04:40:42.931Z,78.91
2023-03-06T04:41:46.224Z,78.59
2023-03-06T04:42:49.171Z,78.56
2023-03-06T04:43:51.412Z,78.96
2023-03-06T04:44:53.938Z,78.49
2023-03-06T04:45:58.053Z,79.00
2023-03-06T04:47:01.265Z,78.72
2023-03-06T04:48:03.102Z,78.74
2023-03-06T04:49:05.678Z,78.62
2023-03-06T04:50:08.858Z,78.74
2023-03-06T04:51:12.257Z,78.81
2023-03-06T04:52:13.830Z,78.80
2023-03-06T04:53:16.905Z,78.69
2023-03-06T04:54:19.119Z,78.89
2023-03-06T04:55:21.940Z,78.80
2023-03-06T04:56:23.653Z,78.80
2023-03-06T04:57:26.148Z,78.71
2023-03-06T04:58:27.736Z,78.76
2023-03-06T04:59:30.247Z,78.83
2023-03-06T05:00:31.864Z,78.95
2023-03-06T05:01:36.074Z,78.92
2023-03-06T05:02:37.663Z,78.70
2023-03-06T05:03:40.182Z,78.97
2023-03-06T05:04:41.813Z,78.78
2023-03-06T05:05:44.390Z,78.89
2023-03-06T05:06:46.383Z,78.87
2023-03-06T05:07:48.913Z,78.80
2023-03-06T05:08:50.432Z,78.67
2023-03-06T05:09:53.318Z,78.55
2023-03-06T05:10:56.905Z,78.90
2023-03-06T05:11:59.436Z,78.84
2023-03-06T05:13:01.049Z,78.75
2023-03-06T05:14:13.219Z,78.77
2023-03-06T05:15:16.386Z,78.73
2023-03-06T05:16:18.929Z,78.78
2023-03-06T05:17:21.962Z,79.00
2023-03-06T05:18:24.440Z,78.63
2023-03-06T05:19:26.249Z,78.89
2023-03-06T05:20:29.076Z,78.68
2023-03-06T05:21:30.649Z,78.65
2023-03-06T05:22:33.327Z,78.98
2023-03-06T05:23:38.296Z,78.73
2023-03-06T05:24:41.605Z,78.53
2023-03-06T05:25:43.280Z,78.76
2023-03-06T05:26:45.934Z,78.56
2023-03-06T05:27:47.490Z,78.89
2023-03-06T05:28:50.035Z,78.65
2023-03-06T05:29:51.599Z,78.62
2023-03-06T05:30:54.076Z,78.82
2023-03-06T05:31:55.928Z,78.88
2023-03-06T05:33:00.393Z,79.02
2023-03-06T05:34:01.992Z,78.59
2023-03-06T05:35:06.275Z,78.75
2023-03-06T05:36:08.941Z,78.75
2023-03-06T05:37:11.473Z,78.50
2023-03-06T05:38:13.711Z,78.29
2023-03-06T05:39:16.284Z,78.86
2023-03-06T05:40:18.678Z,78.65
2023-03-06T05:41:21.678Z,78.70
2023-03-06T05:42:23.504Z,78.54
2023-03-06T05:43:26.421Z,78.65
2023-03-06T05:44:30.871Z,78.88
2023-03-06T05:45:33.505Z,78.71
2023-03-06T05:46:35.406Z,78.81
2023-03-06T05:47:38.434Z,78.38
2023-03-06T05:48:41.330Z,78.33
2023-03-06T05:49:43.933Z,78.22
2023-03-06T05:50:45.484Z,78.49
2023-03-06T05:51:48.021Z,78.51
2023-03-06T05:52:50.996Z,78.85
2023-03-06T05:53:52.779Z,78.71
2023-03-06T05:54:56.029Z,78.57
2023-03-06T05:55:58.477Z,78.67
2023-03-06T05:57:01.153Z,78.72
2023-03-06T05:58:02.726Z,78.56
2023-03-06T05:59:05.267Z,78.92
2023-03-06T06:00:09.161Z,78.86
2023-03-06T06:01:20.742Z,78.86
2023-03-06T06:02:22.630Z,78.64
2023-03-06T06:03:25.768Z,78.55
2023-03-06T06:04:28.748Z,78.85
2023-03-06T06:05:31.256Z,78.63
2023-03-06T06:06:32.771Z,78.75
2023-03-06T06:07:35.355Z,78.66
2023-03-06T06:08:37.340Z,78.70
2023-03-06T06:09:39.964Z,78.74
2023-03-06T06:10:41.717Z,78.44
2023-03-06T06:11:44.596Z,78.57
2023-03-06T06:12:46.123Z,78.39
2023-03-06T06:13:49.961Z,78.73
2023-03-06T06:14:52.464Z,78.83
2023-03-06T06:15:54.272Z,78.48
2023-03-06T06:16:57.331Z,78.39
2023-03-06T06:17:59.004Z,78.63
2023-03-06T06:19:01.544Z,78.61
2023-03-06T06:20:06.477Z,78.75
2023-03-06T06:21:11.425Z,78.60
2023-03-06T06:22:14.158Z,78.38
2023-03-06T06:23:15.781Z,78.49
2023-03-06T06:24:20.304Z,78.58
2023-03-06T06:25:21.851Z,78.62
2023-03-06T06:26:24.389Z,78.32
2023-03-06T06:27:25.978Z,78.55
2023-03-06T06:28:28.652Z,78.13
2023-03-06T06:29:30.360Z,78.15
2023-03-06T06:30:42.904Z,78.23
2023-03-06T06:31:44.824Z,78.36
2023-03-06T06:32:47.369Z,78.34
2023-03-06T06:33:48.902Z,78.34
2023-03-06T06:34:51.559Z,78.35
2023-03-06T06:35:54.784Z,78.42
2023-03-06T06:36:57.356Z,78.10
2023-03-06T06:38:00.010Z,78.14
2023-03-06T06:39:01.885Z,77.89
2023-03-06T06:40:05.419Z,78.08
2023-03-06T06:41:35.576Z,78.06
2023-03-06T06:42:36.966Z,77.97
2023-03-06T06:43:40.766Z,78.03
2023-03-06T06:44:43.418Z,77.78
2023-03-06T06:45:44.976Z,78.14
2023-03-06T06:48:12.748Z,77.77
2023-03-06T06:49:14.775Z,77.95
2023-03-06T06:50:17.626Z,77.87
2023-03-06T06:51:20.813Z,77.92
2023-03-06T06:52:24.384Z,77.79
2023-03-06T06:53:27.431Z,77.85
2023-03-06T06:54:31.056Z,77.82
2023-03-06T06:55:33.586Z,77.84
2023-03-06T06:56:35.447Z,77.81
2023-03-06T06:57:38.103Z,77.71
2023-03-06T06:58:39.766Z,77.85
2023-03-06T06:59:42.562Z,77.79
2023-03-06T07:00:44.237Z,77.68
2023-03-06T07:01:47.043Z,77.64
2023-03-06T07:02:51.084Z,77.60
2023-03-06T07:03:52.665Z,77.90
2023-03-06T07:05:04.802Z,77.46
2023-03-06T07:06:16.037Z,77.53
2023-03-06T07:07:19.903Z,77.51
2023-03-06T07:08:21.644Z,77.50
2023-03-06T07:09:24.286Z,77.42
2023-03-06T07:10:26.977Z,77.27
2023-03-06T07:11:28.544Z,77.46
2023-03-06T07:12:32.721Z,77.42
2023-03-06T07:13:34.399Z,77.59
2023-03-06T07:14:37.241Z,77.33
2023-03-06T07:15:38.972Z,77.24
2023-03-06T07:16:41.466Z,77.18
2023-03-06T07:17:43.149Z,77.40
2023-03-06T07:18:46.221Z,76.97
2023-03-06T07:19:49.085Z,77.06
2023-03-06T07:20:51.637Z,77.28
2023-03-06T07:21:54.160Z,77.40
2023-03-06T07:22:58.029Z,77.20
2023-03-06T07:24:00.542Z,76.94
2023-03-06T07:25:03.261Z,77.21
2023-03-06T07:26:06.196Z,77.03
2023-03-06T07:27:08.077Z,76.89
2023-03-06T07:28:10.713Z,76.86
2023-03-06T07:29:12.300Z,76.87
2023-03-06T07:30:15.157Z,76.79
2023-03-06T07:31:17.724Z,76.64
2023-03-06T07:32:20.655Z,76.77
2023-03-06T07:33:23.235Z,76.49
2023-03-06T07:34:25.857Z,76.40
2023-03-06T07:35:27.637Z,76.65
2023-03-06T07:36:30.225Z,76.50
2023-03-06T07:37:32.925Z,76.43
2023-03-06T07:38:36.281Z,76.45
2023-03-06T07:39:38.826Z,76.22
2023-03-06T07:40:42.138Z,76.45
2023-03-06T07:41:43.741Z,76.23
2023-03-06T07:42:46.838Z,76.16
2023-03-06T07:43:49.233Z,76.19
2023-03-06T07:44:51.753Z,76.32
2023-03-06T07:45:58.117Z,76.19
2023-03-06T07:46:59.665Z,76.25
2023-03-06T07:48:02.203Z,75.87
2023-03-06T07:49:03.784Z,76.03
2023-03-06T07:50:07.790Z,76.03
2023-03-06T07:51:14.761Z,76.18
2023-03-06T07:52:17.287Z,76.16
2023-03-06T07:53:22.431Z,75.99
2023-03-06T07:54:26.305Z,75.92
2023-03-06T07:55:28.020Z,76.18
2023-03-06T07:56:30.507Z,75.86
2023-03-06T07:57:32.120Z,76.11
2023-03-06T07:58:34.616Z,76.02
2023-03-06T07:59:37.211Z,76.10
2023-03-06T08:00:38.788Z,75.72
2023-03-06T08:01:41.269Z,75.77
2023-03-06T08:02:43.335Z,75.99
2023-03-06T08:03:46.390Z,75.54
2023-03-06T08:04:52.199Z,75.71
2023-03-06T08:05:54.696Z,75.45
2023-03-06T08:06:57.484Z,75.80
2023-03-06T08:08:01.085Z,75.55
2023-03-06T08:09:03.163Z,75.70
2023-03-06T08:10:07.905Z,75.26
2023-03-06T08:11:11.272Z,75.62
2023-03-06T08:12:15.752Z,75.56
2023-03-06T08:13:19.085Z,75.39
2023-03-06T08:14:21.674Z,75.03
2023-03-06T08:15:23.432Z,75.63
2023-03-06T08:16:28.496Z,75.21
2023-03-06T08:17:30.127Z,75.46
2023-03-06T08:18:33.072Z,75.24
2023-03-06T08:19:34.664Z,75.16
2023-03-06T08:20:37.231Z,75.02
2023-03-06T08:21:39.908Z,75.08
2023-03-06T08:22:41.918Z,75.39
2023-03-06T08:23:44.938Z,74.85
2023-03-06T08:24:47.529Z,75.18
2023-03-06T08:25:56.939Z,74.67
2023-03-06T08:26:59.559Z,75.03
2023-03-06T08:28:02.154Z,74.27
2023-03-06T08:29:04.793Z,74.74
2023-03-06T08:30:07.958Z,74.30
2023-03-06T08:31:13.246Z,74.41
2023-03-06T08:32:15.929Z,74.50
2023-03-06T08:33:18.490Z,74.46
2023-03-06T08:34:24.156Z,74.40
2023-03-06T08:35:26.746Z,74.27
2023-03-06T08:36:29.158Z,74.10
2023-03-06T08:37:31.754Z,74.23
2023-03-06T08:38:35.301Z,74.41
2023-03-06T08:39:37.845Z,74.02
2023-03-06T08:40:39.581Z,74.29
2023-03-06T08:41:43.547Z,73.83
2023-03-06T08:42:48.834Z,73.95
2023-03-06T08:43:50.920Z,73.88
2023-03-06T08:44:53.441Z,73.74
2023-03-06T08:45:55.746Z,74.35
2023-03-06T08:46:58.452Z,74.13
2023-03-06T08:48:00.025Z,74.14
2023-03-06T08:49:03.022Z,73.99
2023-03-06T08:50:06.115Z,73.85
2023-03-06T08:51:09.540Z,74.39
2023-03-06T08:52:12.443Z,73.71
2023-03-06T08:53:15.166Z,73.86
2023-03-06T08:54:17.712Z,74.06
2023-03-06T08:55:20.223Z,73.89
2023-03-06T08:56:24.571Z,73.93
2023-03-06T08:57:28.424Z,73.58
2023-03-06T08:58:31.840Z,73.92
2023-03-06T08:59:33.385Z,73.86
2023-03-06T09:00:36.151Z,73.62
2023-03-06T09:01:39.828Z,73.69
2023-03-06T09:02:42.663Z,73.33
2023-03-06T09:03:44.570Z,73.58
2023-03-06T09:04:47.057Z,73.46
2023-03-06T09:05:49.086Z,73.27
2023-03-06T09:06:52.143Z,73.68
2023-03-06T09:07:54.606Z,73.68
2023-03-06T09:08:57.355Z,73.73
2023-03-06T09:09:59.891Z,73.93
2023-03-06T09:11:01.498Z,73.60
2023-03-06T09:12:04.388Z,73.63
2023-03-06T09:13:07.439Z,73.90
2023-03-06T09:14:10.003Z,73.37
2023-03-06T09:15:14.279Z,73.67
2023-03-06T09:16:15.861Z,73.91
2023-03-06T09:17:18.461Z,73.83
2023-03-06T09:18:20.031Z,73.40
2023-03-06T09:19:22.552Z,73.79
2023-03-06T09:20:24.201Z,73.52
2023-03-06T09:21:28.091Z,73.53
2023-03-06T09:22:29.650Z,73.83
2023-03-06T09:23:32.468Z,73.39
2023-03-06T09:24:35.048Z,73.71
2023-03-06T09:25:36.852Z,73.85
2023-03-06T09:26:46.050Z,73.36
2023-03-06T09:28:01.800Z,73.56
2023-03-06T09:29:09.596Z,73.22
2023-03-06T09:30:12.232Z,73.46
2023-03-06T09:31:16.838Z,73.37
2023-03-06T09:32:19.446Z,73.25
2023-03-06T09:33:22.132Z,73.16
2023-03-06T09:34:24.883Z,72.92
2023-03-06T09:35:26.475Z,72.75
2023-03-06T09:36:29.086Z,72.83
2023-03-06T09:37:31.575Z,72.86
2023-03-06T09:38:33.454Z,72.83
2023-03-06T09:39:36.095Z,73.02
2023-03-06T09:40:49.854Z,73.03
2023-03-06T09:41:53.068Z,72.58
2023-03-06T09:42:54.702Z,72.73
2023-03-06T09:44:04.894Z,72.62
2023-03-06T09:45:14.246Z,72.39
2023-03-06T09:46:23.264Z,73.07
2023-03-06T09:47:46.536Z,73.00
2023-03-06T09:49:01.363Z,72.77
2023-03-06T09:50:14.859Z,73.27
2023-03-06T09:51:22.046Z,73.25
2023-03-06T09:52:31.472Z,73.05
2023-03-06T09:53:50.560Z,73.15
2023-03-06T09:54:55.472Z,73.36
2023-03-06T09:56:00.956Z,73.47
2023-03-06T09:57:03.794Z,73.37
2023-03-06T09:58:15.170Z,73.53
2023-03-06T09:59:24.348Z,73.57
2023-03-06T10:00:33.058Z,73.27
2023-03-06T10:01:40.893Z,73.68
2023-03-06T10:02:47.249Z,73.72
2023-03-06T10:03:55.216Z,73.34
2023-03-06T10:05:01.612Z,73.51
2023-03-06T10:06:14.388Z,72.97
2023-03-06T10:07:21.723Z,73.34
2023-03-06T10:08:31.183Z,73.32
2023-03-06T10:09:42.803Z,73.24
2023-03-06T10:10:50.265Z,73.46
2023-03-06T10:11:57.887Z,73.12
2023-03-06T10:13:04.803Z,73.66
2023-03-06T10:14:17.727Z,73.40
2023-03-06T10:15:25.024Z,72.97
2023-03-06T10:16:30.554Z,73.28
2023-03-06T10:17:36.057Z,73.07
2023-03-06T10:18:39.293Z,72.94
2023-03-06T10:19:42.080Z,73.34
2023-03-06T10:20:50.387Z,73.04
2023-03-06T10:21:59.532Z,72.92
2023-03-06T10:23:40.436Z,73.33
2023-03-06T10:24:53.297Z,72.88
2023-03-06T10:26:01.895Z,73.12
2023-03-06T10:27:15.939Z,72.98
2023-03-06T10:28:22.170Z,73.18
2023-03-06T10:29:56.313Z,73.01
2023-03-06T10:31:10.619Z,73.21
2023-03-06T10:32:29.036Z,72.92
2023-03-06T10:33:48.640Z,73.12
2023-03-06T10:34:51.476Z,72.91
2023-03-06T10:35:56.478Z,73.29
2023-03-06T10:37:02.283Z,73.34
2023-03-06T10:38:16.583Z,73.25
2023-03-06T10:39:20.980Z,73.59
2023-03-06T10:40:29.428Z,73.11
2023-03-06T10:41:35.706Z,73.31
2023-03-06T10:42:37.523Z,73.31
2023-03-06T10:43:42.378Z,73.44
2023-03-06T10:44:44.900Z,73.55
2023-03-06T10:45:49.754Z,73.83
2023-03-06T10:46:54.598Z,73.78
2023-03-06T10:48:11.792Z,73.34
2023-03-06T10:49:25.286Z,73.77
2023-03-06T10:50:30.593Z,73.57
2023-03-06T10:51:33.920Z,73.29
2023-03-06T10:52:36.998Z,73.05
2023-03-06T10:53:49.877Z,73.13
2023-03-06T10:54:52.549Z,72.97
2023-03-06T10:56:06.097Z,73.09
2023-03-06T10:57:19.790Z,73.12
2023-03-06T10:58:25.258Z,73.13
2023-03-06T10:59:29.331Z,73.35
2023-03-06T11:00:33.187Z,73.15
2023-03-06T11:01:36.671Z,73.31
2023-03-06T11:02:41.034Z,73.60
2023-03-06T11:03:45.210Z,73.71
2023-03-06T11:04:51.628Z,73.68
2023-03-06T11:05:57.614Z,73.62
2023-03-06T11:07:09.917Z,73.94
2023-03-06T11:08:21.857Z,73.61
2023-03-06T11:09:26.374Z,73.77
2023-03-06T11:10:29.426Z,73.96
2023-03-06T11:11:37.797Z,73.65
2023-03-06T11:12:43.591Z,74.03
2023-03-06T11:13:57.440Z,74.07
2023-03-06T11:15:20.922Z,73.78
2023-03-06T11:16:27.420Z,73.94
2023-03-06T11:17:31.902Z,73.47
2023-03-06T11:18:40.216Z,73.52
2023-03-06T11:19:43.309Z,73.73
2023-03-06T11:20:56.821Z,74.14
2023-03-06T11:22:01.759Z,73.75
2023-03-06T11:23:09.036Z,73.59
2023-03-06T11:24:19.485Z,73.61
2023-03-06T11:25:24.732Z,73.56
2023-03-06T11:26:33.430Z,73.48
2023-03-06T11:27:35.601Z,73.59
2023-03-06T11:28:42.660Z,73.45
2023-03-06T11:29:48.059Z,73.75
2023-03-06T11:30:53.247Z,73.83
2023-03-06T11:31:59.310Z,73.38
2023-03-06T11:33:05.912Z,73.66
2023-03-06T11:34:15.600Z,73.74
2023-03-06T11:35:23.637Z,73.32
2023-03-06T11:36:31.350Z,73.57
2023-03-06T11:37:46.653Z,73.69
2023-03-06T11:38:49.919Z,73.69
2023-03-06T11:40:01.620Z,73.58
2023-03-06T11:41:09.107Z,73.39
2023-03-06T11:42:19.367Z,73.06
2023-03-06T11:43:27.464Z,73.19
2023-03-06T11:44:42.953Z,73.00
2023-03-06T11:46:00.192Z,72.73
2023-03-06T11:47:08.606Z,73.06
2023-03-06T11:48:24.555Z,73.30
2023-03-06T11:49:31.962Z,73.04
2023-03-06T11:50:41.413Z,73.19
2023-03-06T11:51:48.234Z,72.87
2023-03-06T11:52:56.015Z,72.67
2023-03-06T11:54:00.780Z,72.60
2023-03-06T11:55:02.647Z,72.66
2023-03-06T11:56:15.608Z,72.49
2023-03-06T11:57:21.729Z,72.32
2023-03-06T11:58:42.733Z,72.63
2023-03-06T12:00:04.156Z,72.23
2023-03-06T12:01:15.777Z,72.37
2023-03-06T12:02:34.277Z,72.13
2023-03-06T12:04:30.923Z,72.19
2023-03-06T12:05:41.156Z,72.05
2023-03-06T12:06:53.609Z,71.85
2023-03-06T12:08:01.980Z,71.80
2023-03-06T12:09:20.570Z,71.87
2023-03-06T12:10:29.777Z,71.42
2023-03-06T12:11:42.673Z,71.63
2023-03-06T12:13:18.623Z,71.40
2023-03-06T12:14:39.072Z,71.21
2023-03-06T12:15:55.090Z,71.40
2023-03-06T12:17:12.377Z,71.38
2023-03-06T12:18:31.338Z,71.23
2023-03-06T12:19:47.096Z,71.39
2023-03-06T12:21:04.027Z,71.36
2023-03-06T12:22:27.500Z,71.34
2023-03-06T12:23:54.874Z,71.11
2023-03-06T12:25:10.557Z,70.80
2023-03-06T12:26:30.587Z,70.60
2023-03-06T12:27:39.986Z,70.53
2023-03-06T12:29:00.151Z,70.57
2023-03-06T12:30:41.523Z,70.09
2023-03-06T12:31:55.845Z,70.23
2023-03-06T12:33:06.626Z,70.30
2023-03-06T12:34:21.306Z,70.71
2023-03-06T12:35:37.008Z,69.79
2023-03-06T12:36:55.925Z,70.30
2023-03-06T12:38:11.047Z,70.38
2023-03-06T12:39:25.690Z,70.12
2023-03-06T12:40:49.616Z,69.68
2023-03-06T12:42:23.540Z,69.67
2023-03-06T12:44:11.160Z,69.71
2023-03-06T12:45:30.770Z,70.00
2023-03-06T12:46:39.329Z,70.08
2023-03-06T12:47:44.143Z,69.78
2023-03-06T12:48:49.535Z,70.02
2023-03-06T12:49:56.689Z,70.06
2023-03-06T12:51:00.093Z,69.81
2023-03-06T12:52:05.944Z,69.74
2023-03-06T12:53:14.985Z,69.50
2023-03-06T12:54:22.065Z,69.58
2023-03-06T12:55:26.021Z,69.96
2023-03-06T12:56:29.699Z,69.83
2023-03-06T12:57:32.325Z,69.92
2023-03-06T12:58:47.513Z,70.30
2023-03-06T12:59:50.737Z,70.06
2023-03-06T13:01:04.792Z,70.24
2023-03-06T13:02:32.736Z,70.26
2023-03-06T13:04:00.480Z,70.17
2023-03-06T13:05:31.317Z,70.10
2023-03-06T13:06:51.671Z,69.96
2023-03-06T13:08:08.996Z,70.13
2023-03-06T13:09:20.876Z,70.45
2023-03-06T13:10:27.481Z,70.42
2023-03-06T13:12:04.955Z,70.07
2023-03-06T13:13:32.474Z,70.30
2023-03-06T13:14:55.871Z,70.27
2023-03-06T13:16:14.024Z,69.70
2023-03-06T13:17:36.558Z,69.57
2023-03-06T13:19:02.023Z,69.84
2023-03-06T13:20:29.302Z,69.64
2023-03-06T13:22:03.010Z,69.60
2023-03-06T13:23:50.399Z,69.53
2023-03-06T13:25:26.299Z,69.71
2023-03-06T13:26:55.198Z,69.40
2023-03-06T13:28:03.102Z,69.48
2023-03-06T13:29:44.366Z,69.57
2023-03-06T13:30:56.916Z,69.13
2023-03-06T13:32:17.680Z,69.25
2023-03-06T13:33:54.700Z,69.18
2023-03-06T13:34:56.440Z,69.22
2023-03-06T13:35:59.758Z,69.51
2023-03-06T13:37:35.918Z,69.47
2023-03-06T13:38:58.349Z,69.18
2023-03-06T13:40:30.112Z,69.11
2023-03-06T13:41:44.937Z,69.16
2023-03-06T13:43:22.888Z,68.87
2023-03-06T13:44:50.872Z,69.22
2023-03-06T13:45:53.564Z,69.50
2023-03-06T13:46:58.540Z,68.85
2023-03-06T13:48:25.062Z,68.78
2023-03-06T13:49:25.657Z,69.04
2023-03-06T13:50:39.777Z,69.12
2023-03-06T13:52:04.936Z,69.09
2023-03-06T13:53:53.591Z,68.76
2023-03-06T13:55:09.512Z,68.67
2023-03-06T13:56:32.269Z,68.58
2023-03-06T13:57:58.343Z,68.44
2023-03-06T13:59:21.999Z,68.39
2023-03-06T14:00:49.296Z,68.40
2023-03-06T14:02:02.778Z,68.16
2023-03-06T14:03:37.017Z,68.34
2023-03-06T14:04:54.254Z,68.29
2023-03-06T14:05:55.894Z,68.60
2023-03-06T14:07:26.655Z,68.38
2023-03-06T14:08:32.218Z,68.59
2023-03-06T14:09:38.799Z,68.60
2023-03-06T14:10:44.408Z,68.41
2023-03-06T14:11:50.474Z,68.51
2023-03-06T14:13:02.979Z,68.54
2023-03-06T14:14:05.388Z,68.17
2023-03-06T14:15:18.966Z,68.35
2023-03-06T14:16:24.429Z,67.97